Time;durP1;ratioP1;P1;durP2;ratioP2;P2;SDS_P1;SDS_P2;PMS_P1;PMS_P2;Temp;Humidity;BMP_temperature;BMP_pressure;BME280_temperature;BME280_humidity;BME280_pressure;Samples;Min_cycle;Max_cycle;Signal;HPM_P1;HPM_P2
2022/03/16 00:02:22;;;;;;;2.70;1.73;;;16.30;55.50;;;;;;5098885;28;20176;-16
2022/03/16 00:04:49;;;;;;;2.13;1.93;;;16.40;55.50;;;;;;5097402;28;20294;-18
2022/03/16 00:07:16;;;;;;;2.67;2.03;;;16.40;55.50;;;;;;5099569;28;20240;-21
2022/03/16 00:09:42;;;;;;;2.47;2.20;;;16.40;55.50;;;;;;5099299;28;20200;-16
2022/03/16 00:12:09;;;;;;;2.10;1.80;;;16.30;55.50;;;;;;5099080;28;20183;-15
2022/03/16 00:14:35;;;;;;;2.73;2.07;;;16.30;55.50;;;;;;5099578;28;20296;-18
2022/03/16 00:17:01;;;;;;;3.07;1.77;;;16.30;55.50;;;;;;5099168;28;20188;-19
2022/03/16 00:19:27;;;;;;;2.23;1.77;;;16.30;55.50;;;;;;5095020;28;20462;-16
2022/03/16 00:21:53;;;;;;;2.17;1.97;;;16.30;55.50;;;;;;5086942;28;20309;-14
2022/03/16 00:24:18;;;;;;;2.23;1.80;;;16.30;55.50;;;;;;5081385;28;20178;-16
2022/03/16 00:26:44;;;;;;;3.30;2.13;;;16.30;55.40;;;;;;5085248;28;20280;-20
2022/03/16 00:29:10;;;;;;;2.40;2.00;;;16.30;55.40;;;;;;5094206;28;20460;-15
2022/03/16 00:31:35;;;;;;;2.80;2.10;;;16.30;55.40;;;;;;5080201;28;20450;-18
2022/03/16 00:34:02;;;;;;;2.30;2.00;;;16.30;55.40;;;;;;5092684;28;20178;-18
2022/03/16 00:36:28;;;;;;;2.47;1.87;;;16.20;55.60;;;;;;5086543;28;20669;-17
2022/03/16 00:38:54;;;;;;;2.13;1.70;;;16.20;55.20;;;;;;5095515;28;20199;-17
2022/03/16 00:41:20;;;;;;;3.30;2.13;;;16.20;55.20;;;;;;5099182;28;20242;-19
2022/03/16 00:43:45;;;;;;;1.83;1.70;;;16.20;55.20;;;;;;5099546;28;20167;-15
2022/03/16 00:46:11;;;;;;;2.63;2.00;;;16.20;55.50;;;;;;5098697;28;20196;-19
2022/03/16 00:48:37;;;;;;;2.10;1.90;;;16.20;55.10;;;;;;5098319;28;20184;-18
2022/03/16 00:51:03;;;;;;;2.43;1.90;;;16.20;55.10;;;;;;5098876;28;20171;-17
2022/03/16 00:53:30;;;;;;;2.20;1.90;;;16.20;55.10;;;;;;5080028;28;20183;-15
2022/03/16 00:55:56;;;;;;;2.60;1.97;;;16.20;55.00;;;;;;5078477;28;20198;-14
2022/03/16 00:58:24;;;;;;;2.63;2.07;;;16.10;55.00;;;;;;5078760;28;20160;-16
2022/03/16 01:00:50;;;;;;;2.93;1.97;;;16.10;55.00;;;;;;5078407;28;20179;-16
2022/03/16 01:03:16;;;;;;;1.93;1.73;;;16.10;55.00;;;;;;5079066;28;20156;-15
2022/03/16 01:10:50;;;;;;;1.90;1.70;;;16.10;54.80;;;;;;5090035;28;20557;-14
2022/03/16 01:13:16;;;;;;;2.03;1.80;;;16.10;54.80;;;;;;5076337;28;20179;-14
2022/03/16 01:15:41;;;;;;;1.97;1.60;;;16.10;54.80;;;;;;5076084;28;20276;-19
2022/03/16 01:18:07;;;;;;;1.67;1.57;;;16.10;54.80;;;;;;5094680;28;20177;-15
2022/03/16 01:20:33;;;;;;;2.40;1.80;;;16.10;55.20;;;;;;5094955;28;20722;-16
2022/03/16 01:22:58;;;;;;;3.00;1.70;;;16.00;55.10;;;;;;5095679;28;20630;-20
2022/03/16 01:25:24;;;;;;;1.93;1.60;;;16.00;54.70;;;;;;5096037;28;20167;-20
2022/03/16 01:27:50;;;;;;;2.40;1.80;;;16.00;54.70;;;;;;5095660;28;20187;-18
2022/03/16 01:30:15;;;;;;;1.70;1.50;;;16.00;54.70;;;;;;5096874;28;20263;-14
2022/03/16 01:32:41;;;;;;;1.70;1.50;;;16.00;54.70;;;;;;5096221;28;20202;-17
2022/03/16 01:35:08;;;;;;;1.70;1.60;;;16.00;54.70;;;;;;5078270;28;20210;-17
2022/03/16 01:37:34;;;;;;;2.07;1.60;;;16.00;54.60;;;;;;5078652;28;20182;-18
2022/03/16 01:40:00;;;;;;;2.63;1.60;;;16.00;54.60;;;;;;5096651;28;20163;-16
2022/03/16 01:42:26;;;;;;;1.90;1.63;;;16.00;54.50;;;;;;5096867;28;20265;-17
2022/03/16 01:44:53;;;;;;;1.70;1.60;;;15.90;54.90;;;;;;5078233;28;20438;-17
2022/03/16 01:47:21;;;;;;;2.40;1.67;;;15.90;54.50;;;;;;5078554;28;20181;-16
2022/03/16 01:49:48;;;;;;;1.80;1.63;;;15.90;54.50;;;;;;5063474;28;20175;-16
2022/03/16 01:52:22;;;;;;;1.70;1.60;;;15.90;54.40;;;;;;5096000;28;20206;-15
2022/03/16 01:54:48;;;;;;;1.60;1.50;;;15.90;54.40;;;;;;5096465;28;20520;-14
2022/03/16 01:57:15;;;;;;;2.03;1.80;;;15.90;54.40;;;;;;5096022;28;20166;-14
2022/03/16 01:59:42;;;;;;;1.80;1.60;;;15.90;54.40;;;;;;5077951;28;20168;-14
2022/03/16 02:02:09;;;;;;;2.03;1.80;;;15.90;54.50;;;;;;5095623;28;20181;-17
2022/03/16 02:04:35;;;;;;;2.17;1.80;;;15.80;54.30;;;;;;5096032;28;20189;-17
2022/03/16 02:07:00;;;;;;;2.43;1.57;;;15.90;54.40;;;;;;5096108;28;20453;-20
2022/03/16 02:09:26;;;;;;;1.73;1.60;;;15.90;54.40;;;;;;5095031;28;20336;-19
2022/03/16 02:11:52;;;;;;;1.90;1.70;;;15.80;54.30;;;;;;5094346;28;20176;-18
2022/03/16 02:14:18;;;;;;;2.20;1.70;;;15.80;54.40;;;;;;5095779;28;20524;-19
2022/03/16 02:16:45;;;;;;;5.17;1.97;;;15.80;54.40;;;;;;5096045;28;20453;-16
2022/03/16 02:19:10;;;;;;;2.40;1.70;;;15.80;54.40;;;;;;5078162;28;20178;-17
2022/03/16 02:21:40;;;;;;;2.00;1.73;;;15.80;54.30;;;;;;5078275;28;20562;-16
2022/03/16 02:24:07;;;;;;;2.13;1.43;;;15.80;54.30;;;;;;5095591;28;20169;-16
2022/03/16 02:26:34;;;;;;;1.70;1.53;;;15.80;54.30;;;;;;5076534;28;20186;-17
2022/03/16 02:28:59;;;;;;;1.90;1.63;;;15.80;54.30;;;;;;5094207;28;20251;-16
2022/03/16 02:31:26;;;;;;;2.27;1.57;;;15.70;54.20;;;;;;5094167;28;20490;-16
2022/03/16 02:33:52;;;;;;;2.23;1.70;;;15.70;54.20;;;;;;5077334;28;20172;-16
2022/03/16 02:36:18;;;;;;;1.40;1.30;;;15.70;54.60;;;;;;5094948;28;20250;-15
2022/03/16 02:38:45;;;;;;;2.10;1.30;;;15.70;54.20;;;;;;5095819;28;20170;-14
2022/03/16 02:41:10;;;;;;;2.20;1.87;;;15.70;54.20;;;;;;5094881;28;20426;-16
2022/03/16 02:43:37;;;;;;;1.80;1.53;;;15.70;54.20;;;;;;5078073;28;20204;-15
2022/03/16 02:46:04;;;;;;;2.10;1.60;;;15.70;54.10;;;;;;5077267;28;20175;-14
2022/03/16 02:48:29;;;;;;;2.20;1.70;;;15.70;54.10;;;;;;5095626;28;20519;-15
2022/03/16 02:50:55;;;;;;;2.00;1.60;;;15.60;54.00;;;;;;5077460;28;20627;-18
2022/03/16 02:53:21;;;;;;;1.70;1.50;;;15.60;54.00;;;;;;5095730;28;20178;-19
2022/03/16 02:55:47;;;;;;;1.73;1.63;;;15.60;54.00;;;;;;5095566;28;20224;-17
2022/03/16 02:58:14;;;;;;;1.87;1.63;;;15.60;54.00;;;;;;5078085;28;20551;-20
2022/03/16 03:00:41;;;;;;;2.00;1.77;;;15.60;54.00;;;;;;5077383;28;20555;-15
2022/03/16 03:03:07;;;;;;;1.70;1.50;;;15.60;54.00;;;;;;5095022;28;20166;-16
2022/03/16 03:05:32;;;;;;;1.93;1.73;;;15.60;54.00;;;;;;5095521;28;20167;-16
2022/03/16 03:07:59;;;;;;;2.00;1.70;;;15.60;54.00;;;;;;5076439;28;20544;-16
2022/03/16 03:10:25;;;;;;;2.70;1.47;;;15.60;54.00;;;;;;5095446;28;20494;-16
2022/03/16 03:12:51;;;;;;;1.70;1.60;;;15.60;54.00;;;;;;5095353;28;20236;-17
2022/03/16 03:15:17;;;;;;;1.50;1.40;;;15.60;54.00;;;;;;5077081;28;20232;-15
2022/03/16 03:17:44;;;;;;;1.60;1.50;;;15.50;53.90;;;;;;5094134;28;20487;-15
2022/03/16 03:20:11;;;;;;;2.23;1.60;;;15.50;53.90;;;;;;5077663;28;20204;-13
2022/03/16 03:22:37;;;;;;;1.50;1.40;;;15.50;53.90;;;;;;5095410;28;20171;-16
2022/03/16 03:25:03;;;;;;;2.50;1.63;;;15.50;53.90;;;;;;5095768;28;20231;-16
2022/03/16 03:27:30;;;;;;;2.23;1.60;;;15.50;53.90;;;;;;5077668;28;20477;-15
2022/03/16 03:29:56;;;;;;;1.77;1.53;;;15.50;53.80;;;;;;5076370;28;20183;-19
2022/03/16 03:32:21;;;;;;;2.33;1.90;;;15.50;53.80;;;;;;5076246;28;20234;-18
2022/03/16 03:34:50;;;;;;;1.77;1.60;;;15.50;53.80;;;;;;5095006;28;20175;-17
2022/03/16 03:37:16;;;;;;;1.70;1.50;;;15.40;53.80;;;;;;5077457;28;20181;-14
2022/03/16 03:39:42;;;;;;;1.50;1.40;;;15.40;54.10;;;;;;5078476;28;20310;-17
2022/03/16 03:42:08;;;;;;;1.97;1.40;;;15.40;53.80;;;;;;5080646;28;20167;-15
2022/03/16 03:44:37;;;;;;;1.57;1.23;;;15.40;53.80;;;;;;5099444;28;20180;-16
2022/03/16 03:47:05;;;;;;;1.63;1.33;;;15.40;53.70;;;;;;5098290;28;20171;-18
2022/03/16 03:49:35;;;;;;;1.70;1.60;;;15.40;53.70;;;;;;5097936;28;20183;-19
2022/03/16 03:52:01;;;;;;;1.77;1.50;;;15.40;53.70;;;;;;5098511;28;20163;-17
2022/03/16 03:54:27;;;;;;;1.63;1.40;;;15.40;53.70;;;;;;5098663;28;20167;-16
2022/03/16 03:56:52;;;;;;;1.63;1.50;;;15.40;53.70;;;;;;5098905;28;20202;-14
2022/03/16 03:59:18;;;;;;;2.27;1.70;;;15.40;53.80;;;;;;5096304;28;20181;-14
2022/03/16 04:01:44;;;;;;;1.60;1.50;;;15.30;53.70;;;;;;5077963;28;20164;-21
2022/03/16 04:04:10;;;;;;;1.53;1.43;;;15.30;53.60;;;;;;5086269;28;20175;-17
2022/03/16 04:06:35;;;;;;;3.10;1.40;;;15.30;53.60;;;;;;5092081;28;20181;-17
2022/03/16 04:09:01;;;;;;;1.73;1.50;;;15.30;53.70;;;;;;5078480;28;20744;-19
2022/03/16 04:11:26;;;;;;;1.60;1.40;;;15.30;53.60;;;;;;5078505;28;20538;-17
2022/03/16 04:13:53;;;;;;;1.60;1.50;;;15.30;53.60;;;;;;5071607;28;20182;-18
2022/03/16 04:16:20;;;;;;;1.63;1.43;;;15.30;53.60;;;;;;5097283;28;20221;-17
2022/03/16 04:18:46;;;;;;;1.50;1.40;;;15.30;53.60;;;;;;5097220;28;20180;-16
2022/03/16 04:21:11;;;;;;;2.77;1.60;;;15.30;53.50;;;;;;5097362;28;20454;-16
2022/03/16 04:23:37;;;;;;;1.60;1.50;;;15.30;53.50;;;;;;5097698;28;20225;-16
2022/03/16 04:26:03;;;;;;;2.00;1.50;;;15.30;53.50;;;;;;5088874;28;20557;-17
2022/03/16 04:28:28;;;;;;;1.83;1.57;;;15.20;53.50;;;;;;5097142;28;20191;-14
2022/03/16 04:30:54;;;;;;;1.43;1.33;;;15.20;53.50;;;;;;5077398;28;20641;-18
2022/03/16 04:33:19;;;;;;;3.70;1.53;;;15.20;53.40;;;;;;5076775;28;20193;-20
2022/03/16 04:35:45;;;;;;;1.60;1.50;;;15.20;53.40;;;;;;5095966;28;20226;-17
2022/03/16 04:38:11;;;;;;;1.90;1.50;;;15.20;53.40;;;;;;5092866;28;20185;-15
2022/03/16 04:40:36;;;;;;;2.10;1.90;;;15.10;53.40;;;;;;5087038;28;20184;-18
2022/03/16 04:43:02;;;;;;;1.60;1.50;;;15.10;53.40;;;;;;5081219;28;20188;-15
2022/03/16 04:45:28;;;;;;;1.40;1.30;;;15.10;53.50;;;;;;5096592;28;20182;-14
2022/03/16 04:47:54;;;;;;;1.40;1.30;;;15.10;53.50;;;;;;5078394;28;20175;-16
2022/03/16 04:50:20;;;;;;;1.53;1.43;;;15.10;53.50;;;;;;5096002;28;20227;-17
2022/03/16 04:52:47;;;;;;;1.90;1.70;;;15.10;53.50;;;;;;5095170;28;20235;-20
2022/03/16 04:55:13;;;;;;;2.27;1.50;;;15.10;53.40;;;;;;5073132;28;20213;-15
2022/03/16 04:57:40;;;;;;;1.70;1.40;;;15.10;53.30;;;;;;5089906;28;20181;-19
2022/03/16 05:00:07;;;;;;;1.77;1.53;;;15.10;53.30;;;;;;5092282;28;20240;-17
2022/03/16 05:02:32;;;;;;;1.50;1.40;;;15.10;53.30;;;;;;5077518;28;20177;-19
2022/03/16 05:04:58;;;;;;;1.77;1.47;;;15.10;53.30;;;;;;5082280;28;20181;-18
2022/03/16 05:07:24;;;;;;;1.70;1.23;;;15.00;53.30;;;;;;5095460;28;20636;-20
2022/03/16 05:09:50;;;;;;;2.27;1.70;;;15.00;53.20;;;;;;5089618;28;20295;-18
2022/03/16 05:12:16;;;;;;;1.73;1.50;;;15.00;53.30;;;;;;5064045;28;20189;-16
2022/03/16 05:14:41;;;;;;;1.57;1.40;;;15.00;53.30;;;;;;5080972;28;20783;-20
2022/03/16 05:17:07;;;;;;;1.63;1.40;;;15.00;53.20;;;;;;5076448;28;20467;-16
2022/03/16 05:19:34;;;;;;;1.47;1.20;;;15.00;53.30;;;;;;5076201;28;20198;-17
2022/03/16 05:22:00;;;;;;;3.13;1.40;;;15.00;53.20;;;;;;5079299;28;20585;-15
2022/03/16 05:24:26;;;;;;;1.70;1.60;;;15.00;53.20;;;;;;5088758;28;20273;-17
2022/03/16 05:26:52;;;;;;;1.47;1.37;;;15.00;53.20;;;;;;5078617;28;20216;-14
2022/03/16 05:29:18;;;;;;;1.63;1.53;;;15.00;53.20;;;;;;5094973;28;20206;-15
2022/03/16 05:31:44;;;;;;;1.83;1.40;;;15.00;53.10;;;;;;5094130;28;20217;-16
2022/03/16 05:34:10;;;;;;;1.60;1.50;;;14.90;53.10;;;;;;5093375;28;20183;-14
2022/03/16 05:36:36;;;;;;;1.30;1.20;;;14.90;53.10;;;;;;5090456;28;20520;-17
2022/03/16 05:39:04;;;;;;;2.17;1.50;;;14.90;53.10;;;;;;5093771;28;20174;-21
2022/03/16 05:41:30;;;;;;;2.13;1.50;;;14.90;53.10;;;;;;5074378;28;20174;-18
2022/03/16 05:43:56;;;;;;;1.90;1.30;;;14.90;53.10;;;;;;5092211;28;20175;-14
2022/03/16 05:46:22;;;;;;;1.67;1.50;;;14.90;53.50;;;;;;5094017;28;20178;-16
2022/03/16 05:48:47;;;;;;;1.67;1.57;;;14.90;53.10;;;;;;5070313;28;20185;-15
2022/03/16 05:51:13;;;;;;;1.93;1.50;;;14.90;53.00;;;;;;5091401;28;20185;-15
2022/03/16 05:53:39;;;;;;;1.63;1.47;;;14.90;53.00;;;;;;5091853;28;20205;-16
2022/03/16 05:56:05;;;;;;;1.40;1.30;;;14.80;53.00;;;;;;5092313;28;20603;-17
2022/03/16 05:58:31;;;;;;;1.40;1.30;;;14.80;52.90;;;;;;5092446;28;20162;-15
2022/03/16 06:00:56;;;;;;;2.17;1.70;;;14.80;53.00;;;;;;5091803;28;20178;-16
2022/03/16 06:03:22;;;;;;;2.17;1.57;;;14.80;52.90;;;;;;5073370;28;20186;-19
2022/03/16 06:05:48;;;;;;;2.00;1.33;;;14.80;52.90;;;;;;5073152;28;20405;-14
2022/03/16 06:08:14;;;;;;;2.87;1.57;;;14.80;52.90;;;;;;5091845;28;20533;-19
2022/03/16 06:10:40;;;;;;;1.60;1.50;;;14.80;52.90;;;;;;5072622;28;20287;-16
2022/03/16 06:13:07;;;;;;;2.33;1.50;;;14.90;52.90;;;;;;5089378;28;20180;-18
2022/03/16 06:15:43;;;;;;;2.27;1.57;;;14.90;52.90;;;;;;5089666;28;20297;-18
2022/03/16 06:18:10;;;;;;;3.00;1.70;;;14.90;53.00;;;;;;5063767;28;20170;-16
2022/03/16 06:20:36;;;;;;;2.57;1.60;;;14.90;53.10;;;;;;5092019;28;20682;-20
2022/03/16 06:23:04;;;;;;;2.10;1.70;;;14.90;53.20;;;;;;5072686;28;20182;-14
2022/03/16 06:25:31;;;;;;;2.13;1.60;;;15.00;53.40;;;;;;5071650;28;20179;-16
2022/03/16 06:27:56;;;;;;;1.60;1.47;;;15.00;53.40;;;;;;5089991;28;20181;-15
2022/03/16 06:30:22;;;;;;;1.73;1.60;;;15.00;53.70;;;;;;5090550;28;20266;-18
2022/03/16 06:32:48;;;;;;;1.80;1.70;;;15.00;53.60;;;;;;5090240;28;20181;-19
2022/03/16 06:35:15;;;;;;;2.10;1.67;;;15.00;53.50;;;;;;5059144;28;20209;-15
2022/03/16 06:37:42;;;;;;;2.03;1.50;;;15.10;53.40;;;;;;5051914;28;20175;-15
2022/03/16 06:40:08;;;;;;;2.97;1.73;;;15.10;53.20;;;;;;5072599;28;20175;-17
2022/03/16 06:42:34;;;;;;;1.47;1.37;;;15.20;53.10;;;;;;5070056;28;20159;-20
2022/03/16 06:45:00;;;;;;;2.73;1.90;;;15.30;52.90;;;;;;5051835;28;20183;-18
2022/03/16 06:47:26;;;;;;;2.60;1.50;;;15.40;52.60;;;;;;5069330;28;20190;-15
2022/03/16 06:49:51;;;;;;;2.00;1.80;;;15.50;52.40;;;;;;5074324;28;20196;-18
2022/03/16 06:52:17;;;;;;;3.53;1.77;;;15.60;52.10;;;;;;5069040;28;20177;-17
2022/03/16 06:54:43;;;;;;;2.43;1.90;;;15.70;51.90;;;;;;5069365;28;20174;-20
2022/03/16 06:57:09;;;;;;;3.40;2.10;;;15.80;51.70;;;;;;5070120;28;20172;-18
2022/03/16 06:59:34;;;;;;;4.07;2.10;;;15.80;51.50;;;;;;5068842;28;20273;-22
2022/03/16 07:02:00;;;;;;;2.83;1.90;;;15.90;51.40;;;;;;5066896;28;20185;-20
2022/03/16 07:04:26;;;;;;;2.30;1.90;;;15.90;51.40;;;;;;5067714;28;20323;-16
2022/03/16 07:06:51;;;;;;;4.30;2.00;;;16.00;51.30;;;;;;5084205;28;20183;-19
2022/03/16 07:09:17;;;;;;;2.77;2.20;;;16.00;51.10;;;;;;5088655;28;20471;-18
2022/03/16 07:11:43;;;;;;;4.43;2.27;;;16.10;50.90;;;;;;5086133;28;20200;-23
2022/03/16 07:16:52;;;;;;;3.77;2.37;;;16.40;50.30;;;;;;5091692;28;20227;-15
2022/03/16 07:19:18;;;;;;;3.57;2.60;;;16.50;50.10;;;;;;5089716;28;20170;-22
2022/03/16 07:21:44;;;;;;;3.27;2.37;;;16.60;49.90;;;;;;5091849;28;20262;-22
2022/03/16 07:24:10;;;;;;;3.43;2.30;;;16.70;49.70;;;;;;5090170;28;20224;-18
2022/03/16 07:26:39;;;;;;;4.23;2.43;;;16.90;49.40;;;;;;5090216;28;20179;-20
2022/03/16 07:29:06;;;;;;;2.77;2.30;;;16.90;49.20;;;;;;5090606;28;20166;-20
2022/03/16 07:31:31;;;;;;;3.30;2.30;;;17.00;49.20;;;;;;5087678;28;20163;-20
2022/03/16 07:33:57;;;;;;;2.83;2.30;;;17.10;49.10;;;;;;5071904;28;20255;-19
2022/03/16 07:36:23;;;;;;;3.53;2.43;;;17.20;49.00;;;;;;5073029;28;20213;-22
2022/03/16 07:38:50;;;;;;;5.20;2.70;;;17.30;48.70;;;;;;5091399;28;20198;-19
2022/03/16 07:41:15;;;;;;;3.87;2.67;;;17.30;48.50;;;;;;5091835;28;20243;-19
2022/03/16 07:43:41;;;;;;;3.97;2.63;;;17.20;48.50;;;;;;5074691;28;20364;-18
2022/03/16 07:46:07;;;;;;;4.00;2.60;;;17.20;48.60;;;;;;5072478;28;20173;-19
2022/03/16 07:48:34;;;;;;;2.60;2.40;;;17.40;48.50;;;;;;5073314;28;20219;-22
2022/03/16 07:51:04;;;;;;;3.97;2.87;;;17.60;48.20;;;;;;5072912;28;20183;-22
2022/03/16 07:53:30;;;;;;;3.10;2.63;;;17.80;48.00;;;;;;5091360;28;20874;-20
2022/03/16 07:55:57;;;;;;;2.73;2.50;;;17.90;47.50;;;;;;5092108;28;20228;-18
2022/03/16 07:58:23;;;;;;;3.50;2.50;;;18.00;47.40;;;;;;5090592;28;20455;-20
2022/03/16 08:00:49;;;;;;;5.07;2.80;;;18.00;47.20;;;;;;5075203;28;20522;-21
2022/03/16 08:03:15;;;;;;;4.10;2.83;;;18.10;47.10;;;;;;5073031;28;20639;-22
2022/03/16 08:05:41;;;;;;;3.10;2.33;;;18.10;47.00;;;;;;5090981;28;20258;-21
2022/03/16 08:08:07;;;;;;;3.53;2.73;;;18.20;47.00;;;;;;5073446;28;20269;-22
2022/03/16 08:10:33;;;;;;;3.73;2.60;;;18.30;47.00;;;;;;5073167;28;20187;-22
2022/03/16 08:12:58;;;;;;;4.00;2.70;;;18.40;47.40;;;;;;5072178;28;20181;-18
2022/03/16 08:15:24;;;;;;;3.13;2.83;;;18.50;46.70;;;;;;5091620;28;20311;-17
2022/03/16 08:17:50;;;;;;;3.77;2.83;;;18.60;46.50;;;;;;5073087;28;20318;-21
2022/03/16 08:20:16;;;;;;;4.77;2.70;;;18.60;46.40;;;;;;5074374;28;20190;-19
2022/03/16 08:22:42;;;;;;;3.70;2.70;;;18.70;46.40;;;;;;5093265;28;20159;-20
2022/03/16 08:25:11;;;;;;;3.43;2.80;;;18.80;46.20;;;;;;5090831;28;20188;-19
2022/03/16 08:27:37;;;;;;;4.03;2.53;;;18.80;46.10;;;;;;5090761;28;20575;-19
2022/03/16 08:30:05;;;;;;;4.10;3.10;;;18.90;46.10;;;;;;5071870;28;20175;-18
2022/03/16 08:32:31;;;;;;;4.20;2.90;;;19.00;46.10;;;;;;5092774;28;20175;-19
2022/03/16 08:34:57;;;;;;;3.90;2.63;;;19.00;45.80;;;;;;5074702;28;20194;-21
2022/03/16 08:37:24;;;;;;;5.60;2.80;;;19.00;45.80;;;;;;5092600;28;20171;-21
2022/03/16 08:39:50;;;;;;;2.90;2.40;;;19.00;45.70;;;;;;5091568;28;20178;-20
2022/03/16 08:42:16;;;;;;;6.93;2.80;;;19.00;45.60;;;;;;5072118;28;20179;-21
2022/03/16 08:44:43;;;;;;;4.03;2.80;;;19.10;45.80;;;;;;5091997;28;20430;-23
2022/03/16 08:47:10;;;;;;;3.40;2.70;;;19.10;45.70;;;;;;5073235;28;20566;-18
2022/03/16 08:49:37;;;;;;;3.80;3.13;;;19.20;45.70;;;;;;5090487;28;20189;-23
2022/03/16 08:52:05;;;;;;;3.40;3.10;;;19.20;45.50;;;;;;5069899;28;20410;-21
2022/03/16 08:54:31;;;;;;;3.90;2.87;;;19.30;45.50;;;;;;5088836;28;20636;-20
2022/03/16 08:56:57;;;;;;;4.23;3.10;;;19.20;45.50;;;;;;5089596;28;20202;-23
2022/03/16 08:59:23;;;;;;;3.00;2.70;;;19.20;45.60;;;;;;5090258;28;20178;-20
2022/03/16 09:01:50;;;;;;;3.60;2.80;;;19.10;45.70;;;;;;5071258;28;20423;-20
2022/03/16 09:04:16;;;;;;;4.50;2.80;;;19.20;45.80;;;;;;5090805;28;20194;-23
2022/03/16 09:06:42;;;;;;;3.27;2.70;;;19.20;45.60;;;;;;5091029;28;20580;-23
2022/03/16 09:09:08;;;;;;;3.17;2.80;;;19.30;45.60;;;;;;5072327;28;20199;-19
2022/03/16 09:11:34;;;;;;;3.50;2.87;;;19.40;45.50;;;;;;5079202;28;20175;-22
2022/03/16 09:14:01;;;;;;;3.00;2.70;;;19.40;45.80;;;;;;5091083;28;20621;-18
2022/03/16 09:16:28;;;;;;;3.83;2.43;;;19.40;45.40;;;;;;5088348;28;20607;-17
2022/03/16 09:18:54;;;;;;;2.90;2.50;;;19.30;45.40;;;;;;5085557;28;20597;-20
2022/03/16 09:21:19;;;;;;;3.03;2.73;;;19.20;45.50;;;;;;5074218;28;20349;-22
2022/03/16 09:23:45;;;;;;;3.30;2.67;;;19.10;45.70;;;;;;5062137;28;20269;-18
2022/03/16 09:26:12;;;;;;;2.83;2.43;;;19.00;45.80;;;;;;5068731;28;20241;-22
2022/03/16 09:28:38;;;;;;;2.50;2.30;;;18.90;45.90;;;;;;5087115;28;20194;-20
2022/03/16 09:31:04;;;;;;;2.50;2.30;;;18.80;46.00;;;;;;5088052;28;20887;-17
2022/03/16 09:33:32;;;;;;;2.60;2.40;;;18.80;46.10;;;;;;5085894;28;20232;-21
2022/03/16 09:36:00;;;;;;;3.83;2.63;;;18.60;46.20;;;;;;5061808;28;20202;-21
2022/03/16 09:38:26;;;;;;;4.30;2.80;;;18.40;46.40;;;;;;5078100;28;20166;-19
2022/03/16 09:40:56;;;;;;;3.03;2.50;;;18.20;46.80;;;;;;5087214;28;20640;-16
2022/03/16 09:43:23;;;;;;;2.63;2.43;;;18.00;47.10;;;;;;5073680;28;20181;-21
2022/03/16 09:45:57;;;;;;;3.80;2.47;;;17.80;47.30;;;;;;5056821;28;20220;-22
2022/03/16 09:48:24;;;;;;;3.10;2.50;;;17.80;47.90;;;;;;5082606;28;20416;-20
2022/03/16 09:50:54;;;;;;;2.83;2.53;;;17.70;47.70;;;;;;5067693;28;20186;-21
2022/03/16 09:53:23;;;;;;;2.70;2.50;;;17.70;47.70;;;;;;5083694;28;20265;-22
2022/03/16 09:55:52;;;;;;;2.70;2.50;;;17.60;47.90;;;;;;5070359;28;20539;-20
2022/03/16 09:58:20;;;;;;;2.97;2.57;;;17.60;48.00;;;;;;5084580;28;20231;-19
2022/03/16 10:00:47;;;;;;;2.50;2.30;;;17.60;48.10;;;;;;5069681;28;20166;-17
2022/03/16 10:03:15;;;;;;;3.00;2.63;;;17.60;48.10;;;;;;5065875;28;20187;-16
2022/03/16 10:05:41;;;;;;;2.53;2.33;;;17.60;48.20;;;;;;5087350;28;20177;-21
2022/03/16 10:08:08;;;;;;;3.47;2.37;;;17.60;48.30;;;;;;5071042;28;20177;-21
2022/03/16 10:13:23;;;;;;;2.97;2.60;;;17.60;48.30;;;;;;5077789;28;20259;-21
2022/03/16 10:15:51;;;;;;;3.10;2.60;;;17.60;48.40;;;;;;5064241;28;20259;-23
2022/03/16 10:18:19;;;;;;;2.73;2.53;;;17.60;48.40;;;;;;5066955;28;20178;-19
2022/03/16 10:20:45;;;;;;;2.80;2.60;;;17.60;48.40;;;;;;5068858;28;20171;-23
2022/03/16 10:23:20;;;;;;;2.60;2.40;;;17.60;48.50;;;;;;5068057;28;20240;-19
2022/03/16 10:25:51;;;;;;;2.30;2.10;;;17.60;48.50;;;;;;5052830;28;20433;-18
2022/03/16 10:28:19;;;;;;;2.50;2.30;;;17.50;48.50;;;;;;5088235;28;20406;-23
2022/03/16 10:31:02;;;;;;;2.50;2.30;;;17.60;48.60;;;;;;5081072;28;20210;-24
2022/03/16 10:33:51;;;;;;;2.60;2.27;;;17.50;48.60;;;;;;5094263;28;20189;-22
2022/03/16 10:36:20;;;;;;;2.50;2.30;;;17.60;48.70;;;;;;5080191;28;20263;-20
2022/03/16 10:38:49;;;;;;;2.40;2.20;;;17.50;48.80;;;;;;5070196;28;20165;-20
2022/03/16 10:47:01;;;;;;;2.23;2.03;;;17.50;48.90;;;;;;5087770;28;20189;-19
2022/03/16 10:49:34;;;;;;;2.63;2.40;;;17.50;48.90;;;;;;5065016;28;20463;-24
2022/03/16 10:52:10;;;;;;;2.70;2.10;;;17.50;48.90;;;;;;5071973;28;20187;-20
2022/03/16 10:54:37;;;;;;;2.17;1.93;;;17.50;49.00;;;;;;5067973;28;20573;-20
2022/03/16 10:57:06;;;;;;;2.83;2.20;;;17.50;49.00;;;;;;5072599;28;20198;-22
2022/03/16 10:59:33;;;;;;;2.10;1.90;;;17.50;49.00;;;;;;5083947;28;20174;-23
2022/03/16 11:02:12;;;;;;;2.30;2.00;;;17.50;49.00;;;;;;5072915;28;20163;-22
2022/03/16 11:04:43;;;;;;;2.10;1.87;;;17.50;49.10;;;;;;5072895;28;20445;-20
2022/03/16 11:07:09;;;;;;;2.10;1.90;;;17.50;49.20;;;;;;5087477;28;20186;-23
2022/03/16 11:09:37;;;;;;;2.00;1.80;;;17.50;49.20;;;;;;5075528;28;20454;-20
2022/03/16 11:14:49;;;;;;;2.83;2.27;;;17.50;49.20;;;;;;5092784;28;20642;-21
2022/03/16 11:17:16;;;;;;;2.20;2.00;;;17.50;49.30;;;;;;5092518;28;20199;-18
2022/03/16 11:19:44;;;;;;;2.20;1.93;;;17.50;49.40;;;;;;5075161;28;20178;-15
2022/03/16 11:22:15;;;;;;;3.10;2.03;;;17.50;49.40;;;;;;5091911;28;20178;-21
2022/03/16 11:24:51;;;;;;;2.30;2.10;;;17.50;49.40;;;;;;5093178;28;20218;-20
2022/03/16 11:27:49;;;;;;;2.30;2.10;;;17.50;49.40;;;;;;5092665;28;20406;-20
2022/03/16 11:30:19;;;;;;;2.33;1.83;;;17.50;49.50;;;;;;5092294;28;20159;-23
2022/03/16 11:32:48;;;;;;;2.20;2.00;;;17.50;49.50;;;;;;5086356;28;20202;-20
2022/03/16 11:35:15;;;;;;;2.23;1.90;;;17.50;49.50;;;;;;5069871;28;20215;-20
2022/03/16 11:37:45;;;;;;;2.10;1.90;;;17.50;49.50;;;;;;5089205;28;20390;-23
2022/03/16 11:40:15;;;;;;;1.93;1.80;;;17.50;49.60;;;;;;5073371;28;20204;-16
2022/03/16 11:43:04;;;;;;;2.43;2.10;;;17.50;49.60;;;;;;5089604;28;20180;-15
2022/03/16 11:45:34;;;;;;;1.70;1.60;;;17.50;49.60;;;;;;5073269;28;20178;-20
2022/03/16 11:51:09;;;;;;;1.93;1.80;;;17.50;49.70;;;;;;5089867;28;20182;-18
2022/03/16 11:56:36;;;;;;;2.60;2.20;;;17.50;49.80;;;;;;5078465;28;20200;-17
2022/03/16 11:59:19;;;;;;;2.47;2.00;;;17.50;49.90;;;;;;5080034;28;20167;-17
2022/03/16 12:02:01;;;;;;;1.90;1.73;;;17.50;49.90;;;;;;5070824;28;20170;-17
2022/03/16 12:04:35;;;;;;;2.10;1.90;;;17.50;49.90;;;;;;5072138;28;20581;-19
2022/03/16 12:07:09;;;;;;;2.10;1.87;;;17.50;50.00;;;;;;5066398;28;20205;-18
2022/03/16 12:09:51;;;;;;;1.97;1.70;;;17.50;50.00;;;;;;5081120;28;20572;-19
2022/03/16 12:15:32;;;;;;;3.87;2.10;;;17.50;50.00;;;;;;5084993;28;20243;-20
2022/03/16 12:18:00;;;;;;;1.80;1.70;;;17.50;50.10;;;;;;5064651;28;20223;-18
2022/03/16 12:20:34;;;;;;;1.70;1.60;;;17.50;50.10;;;;;;5077634;28;20169;-19
2022/03/16 12:23:01;;;;;;;2.00;1.83;;;17.50;50.10;;;;;;5064065;28;20240;-21
2022/03/16 12:25:27;;;;;;;2.00;1.80;;;17.50;50.20;;;;;;5079464;28;20198;-17
2022/03/16 12:30:48;;;;;;;1.90;1.80;;;17.50;50.30;;;;;;5086681;28;20191;-20
2022/03/16 12:33:19;;;;;;;2.03;1.90;;;17.50;50.20;;;;;;5088315;28;20187;-18
2022/03/16 12:35:49;;;;;;;1.90;1.80;;;17.50;50.20;;;;;;5071822;28;20331;-19
2022/03/16 12:38:15;;;;;;;1.83;1.73;;;17.50;50.30;;;;;;5084415;28;20424;-21
2022/03/16 12:43:27;;;;;;;2.97;1.70;;;17.50;50.30;;;;;;5089618;28;20180;-17
2022/03/16 12:46:24;;;;;;;1.80;1.70;;;17.50;50.30;;;;;;5072030;28;20172;-19
2022/03/16 12:48:54;;;;;;;1.80;1.70;;;17.50;50.40;;;;;;5045191;28;20206;-18
2022/03/16 12:51:45;;;;;;;2.03;1.83;;;17.60;50.50;;;;;;5089380;28;20163;-21
2022/03/16 12:54:12;;;;;;;2.23;1.77;;;17.50;50.40;;;;;;5090581;28;20202;-18
2022/03/16 12:56:40;;;;;;;2.50;2.00;;;17.60;50.50;;;;;;5072037;28;20209;-17
2022/03/16 12:59:08;;;;;;;2.30;1.80;;;17.50;50.50;;;;;;5087534;28;20406;-16
2022/03/16 13:01:34;;;;;;;2.10;1.90;;;17.50;50.40;;;;;;5071225;28;20182;-20
2022/03/16 13:04:05;;;;;;;3.27;2.00;;;17.60;50.50;;;;;;5069120;28;20492;-16
2022/03/16 13:06:33;;;;;;;1.70;1.60;;;17.50;50.50;;;;;;5070863;28;20183;-18
2022/03/16 13:09:03;;;;;;;1.80;1.70;;;17.60;50.60;;;;;;5066880;28;20569;-19
2022/03/16 13:11:30;;;;;;;1.87;1.77;;;17.50;50.50;;;;;;5069069;28;20184;-18
2022/03/16 13:14:01;;;;;;;1.97;1.70;;;17.60;50.50;;;;;;5070294;28;20171;-17
2022/03/16 13:16:47;;;;;;;2.30;2.07;;;17.60;50.50;;;;;;5071239;28;20207;-21
2022/03/16 13:19:24;;;;;;;2.10;1.90;;;17.60;50.60;;;;;;5089497;28;20201;-18
2022/03/16 13:22:04;;;;;;;2.40;2.00;;;17.60;50.60;;;;;;5083797;28;20744;-15
2022/03/16 13:24:31;;;;;;;2.57;2.10;;;17.60;50.60;;;;;;5084731;28;20175;-19